Sammamish, WA

5:28 PM PDT on June 29, 2015 (GMT -0700)
Renaissance Ridge | | Change Station
CLOSE
Current Station
Personal Weather Station
Location: Sammamish, WA
Elevation: 525 ft
Nearby Weather Stations

Elev 525 ft 47.60 °N, 122.01 °W | Updated 2 minutes ago

Clear
Clear
91.4 °F
Feels Like 91 °F
N
3.2
Wind Variable Wind from NW

Today
High -- | Low -- °F
--% Chance of Precip.
Yesterday
High -- | Low -- °F
Precip. -- in
5:13 AM 9:09 PM
Waxing Gibbous, 95% visible
Pressure 29.99 in
Visibility 9.0 miles
Clouds Clear
Heat Index 91 °F
Dew Point 60 °F
Humidity 35%
Rainfall 0.00 in
Snow Depth Not available.
UV 0.0 out of 12
Pollen 2.90 out of 12
Air Quality Not available.
Flu Activity Sporadic
METAR KRNT 292353Z 21007KT 180V250 9SM CLR 30/14 A2997 RMK AO2 SLP154 T03000144 10306 20250 56006

More Conditions Fewer Conditions

Pressure 29.99 in
Visibility 9.0 miles
Clouds Clear
Heat Index 91 °F
Dew Point 60 °F
Humidity 35%
Rainfall 0.00 in
Snow Depth Not available.
UV 0.0 out of 12
Pollen 2.90 out of 12
Air Quality Not available.
Flu Activity Sporadic
METAR KRNT 292353Z 21007KT 180V250 9SM CLR 30/14 A2997 RMK AO2 SLP154 T03000144 10306 20250 56006

More Conditions Fewer Conditions

10-Day Weather Forecast

×

Almanac

Astronomy

Jun. 29, 2015 Rise Set
Actual Time
Civil Twilight
Nautical Twilight
Astronomical Twilight
Moon
Length of Visible Light
Length of Day
Tomorrow will be .
, % of the Moon is Illuminated

Today's Extremes

State Highs State Lows

Community

WunderPhotos

Upload Photos

1,833,899 photos uploaded!

WunderBlogs® & News

Nearby

Air Quality

  Air Quality AQ Index Pollutant
Not available.

Snow Depth

Station Depth Elevation

Earthquake Activity

City Distance Mag. Time & Date
Minimum magnitude displayed is 2.5.

Coastal Water Temperatures

Place Temperature

Stations

Nearby Weather Stations

Station Location Temp. Windchill Dew Point Humidity Wind Precip. Elev Updated Type